Time;durP1;ratioP1;P1;durP2;ratioP2;P2;SDS_P1;SDS_P2;PMS_P1;PMS_P2;Temp;Humidity;BMP_temperature;BMP_pressure;BME280_temperature;BME280_humidity;BME280_pressure;Samples;Min_cycle;Max_cycle;Signal;HPM_P1;HPM_P2
2021/11/10 00:03:40;;;;;;;12.45;6.38;;;8.10;81.80;;;;;;5052779;28;20097;-79
2021/11/10 00:06:06;;;;;;;11.07;5.85;;;8.10;81.90;;;;;;5042816;28;20043;-79
2021/11/10 00:08:31;;;;;;;14.88;6.78;;;8.00;81.90;;;;;;5076597;28;20026;-80
2021/11/10 00:10:57;;;;;;;12.00;5.95;;;8.00;81.90;;;;;;5076383;28;20028;-77
2021/11/10 00:13:23;;;;;;;14.02;6.30;;;8.00;81.90;;;;;;5076615;28;20082;-79
2021/11/10 00:15:51;;;;;;;9.45;5.72;;;8.00;82.00;;;;;;5073464;28;20032;-74
2021/11/10 00:18:17;;;;;;;12.13;5.75;;;8.00;82.00;;;;;;5076341;28;20039;-75
2021/11/10 00:20:45;;;;;;;13.10;5.90;;;7.90;82.00;;;;;;5076179;28;20032;-75
2021/11/10 00:23:11;;;;;;;13.73;5.82;;;7.90;82.00;;;;;;5075810;28;20479;-75
2021/11/10 00:25:37;;;;;;;11.65;5.25;;;7.90;82.00;;;;;;5076449;28;20036;-75
2021/11/10 00:28:02;;;;;;;12.23;5.80;;;7.90;82.10;;;;;;5076215;28;20564;-75
2021/11/10 00:30:29;;;;;;;11.60;5.80;;;7.80;82.10;;;;;;5092898;28;20119;-75
2021/11/10 00:32:55;;;;;;;12.45;5.85;;;7.80;82.70;;;;;;5096326;28;20449;-75
2021/11/10 00:35:21;;;;;;;11.93;5.80;;;7.70;82.10;;;;;;5096169;28;20503;-75
2021/11/10 00:37:47;;;;;;;11.82;5.53;;;7.70;82.10;;;;;;5096290;28;20038;-75
2021/11/10 00:40:13;;;;;;;17.50;5.85;;;7.70;82.10;;;;;;5096531;28;20035;-75
2021/11/10 00:42:39;;;;;;;13.32;5.80;;;7.70;82.20;;;;;;5095901;28;20028;-76
2021/11/10 00:45:06;;;;;;;12.52;5.60;;;7.60;82.20;;;;;;5096238;28;20022;-76
2021/11/10 00:47:32;;;;;;;12.55;5.85;;;7.60;82.20;;;;;;5095935;28;20123;-76
2021/11/10 00:49:57;;;;;;;13.40;5.85;;;7.60;82.20;;;;;;5095973;28;20055;-77
2021/11/10 00:52:23;;;;;;;11.77;5.50;;;7.60;82.30;;;;;;5095953;28;20026;-77
2021/11/10 00:54:50;;;;;;;14.07;5.47;;;7.60;82.30;;;;;;5095880;28;20018;-76
2021/11/10 00:57:16;;;;;;;9.52;6.00;;;7.60;82.30;;;;;;5095756;28;20054;-76
2021/11/10 00:59:42;;;;;;;10.48;5.97;;;7.60;82.30;;;;;;5095652;28;20048;-76
2021/11/10 01:02:07;;;;;;;12.75;6.35;;;7.60;82.30;;;;;;5095839;28;20487;-76
2021/11/10 01:04:33;;;;;;;12.15;5.60;;;7.60;82.30;;;;;;5113981;28;20035;-76
2021/11/10 01:06:59;;;;;;;12.05;6.13;;;7.60;82.30;;;;;;5114119;28;20378;-76
2021/11/10 01:09:25;;;;;;;11.57;6.00;;;7.60;82.30;;;;;;5095715;28;20118;-76
2021/11/10 01:11:50;;;;;;;11.82;5.35;;;7.50;82.30;;;;;;5113896;28;20479;-76
2021/11/10 01:14:17;;;;;;;11.00;5.65;;;7.50;82.30;;;;;;5095563;28;20028;-76
2021/11/10 01:16:43;;;;;;;12.13;5.78;;;7.60;82.30;;;;;;5113874;28;20501;-76
2021/11/10 01:19:09;;;;;;;12.65;5.78;;;7.60;82.30;;;;;;5095540;28;20027;-76
2021/11/10 01:21:35;;;;;;;10.50;5.75;;;7.50;82.30;;;;;;5113880;28;20396;-77
2021/11/10 01:24:01;;;;;;;9.45;5.82;;;7.50;82.30;;;;;;5095425;28;20028;-76
2021/11/10 01:26:28;;;;;;;10.32;5.57;;;7.60;82.30;;;;;;5113878;28;20479;-76
2021/11/10 01:28:54;;;;;;;11.25;5.55;;;7.50;82.20;;;;;;5095518;28;20054;-76
2021/11/10 01:31:20;;;;;;;12.63;6.05;;;7.50;82.30;;;;;;5095462;28;20073;-76
2021/11/10 01:33:46;;;;;;;11.52;5.65;;;7.50;82.30;;;;;;5095347;28;20043;-76
2021/11/10 01:36:12;;;;;;;12.48;5.72;;;7.40;82.30;;;;;;5095301;28;20412;-77
2021/11/10 01:38:37;;;;;;;11.98;6.45;;;7.40;82.30;;;;;;5095212;28;20077;-76
2021/11/10 01:41:04;;;;;;;9.00;5.88;;;7.40;82.30;;;;;;5095421;28;20053;-77
2021/11/10 01:43:30;;;;;;;9.63;5.75;;;7.40;82.30;;;;;;5095116;28;20031;-76
2021/11/10 01:45:58;;;;;;;15.65;6.78;;;7.40;82.40;;;;;;5094643;28;20088;-76
2021/11/10 01:48:24;;;;;;;10.88;5.90;;;7.40;82.50;;;;;;5113463;28;20024;-76
2021/11/10 01:50:51;;;;;;;14.55;6.10;;;7.40;82.50;;;;;;5095149;28;20072;-76
2021/11/10 01:53:16;;;;;;;13.35;6.45;;;7.30;82.40;;;;;;5095270;28;20028;-76
2021/11/10 01:55:43;;;;;;;12.07;6.05;;;7.30;82.40;;;;;;5095130;28;20160;-76
2021/11/10 01:58:09;;;;;;;11.38;6.30;;;7.30;82.50;;;;;;5095213;28;20383;-76
2021/11/10 02:00:38;;;;;;;12.15;6.10;;;7.30;82.50;;;;;;5113304;28;20495;-75
2021/11/10 02:03:04;;;;;;;10.70;5.75;;;7.30;82.50;;;;;;5094906;28;20149;-76
2021/11/10 02:05:30;;;;;;;8.80;5.78;;;7.20;82.50;;;;;;5095152;28;20016;-76
2021/11/10 02:07:55;;;;;;;10.88;5.90;;;7.20;82.60;;;;;;5095095;28;20023;-76
2021/11/10 02:10:26;;;;;;;10.73;6.40;;;7.20;82.60;;;;;;5094992;28;20510;-76
2021/11/10 02:12:53;;;;;;;12.82;6.25;;;7.20;82.70;;;;;;5095065;28;20027;-76
2021/11/10 02:15:21;;;;;;;12.07;6.13;;;7.20;82.60;;;;;;5113334;28;20024;-76
2021/11/10 02:17:56;;;;;;;10.35;6.30;;;7.20;82.60;;;;;;5095000;28;20384;-77
2021/11/10 02:20:22;;;;;;;12.02;6.30;;;7.10;82.50;;;;;;5095058;28;20494;-76
2021/11/10 02:22:51;;;;;;;11.70;6.68;;;7.10;82.60;;;;;;5094807;28;20134;-77
2021/11/10 02:25:18;;;;;;;13.65;6.32;;;7.10;82.60;;;;;;5094886;28;20015;-76
2021/11/10 02:27:44;;;;;;;13.13;6.30;;;7.10;82.60;;;;;;5094868;28;20027;-76
2021/11/10 02:30:17;;;;;;;14.05;6.22;;;7.10;82.60;;;;;;5094809;28;20024;-76
2021/11/10 02:32:54;;;;;;;11.40;5.95;;;7.00;82.60;;;;;;5094803;28;20031;-76
2021/11/10 02:35:24;;;;;;;10.40;6.07;;;6.90;82.50;;;;;;5094742;28;20023;-77
2021/11/10 02:38:05;;;;;;;15.27;5.72;;;6.90;82.60;;;;;;5094801;28;20020;-76
2021/11/10 02:40:31;;;;;;;11.40;5.93;;;6.90;82.70;;;;;;5094783;28;20487;-76
2021/11/10 02:42:57;;;;;;;12.20;6.07;;;6.90;82.70;;;;;;5094673;28;20038;-76
2021/11/10 02:45:23;;;;;;;11.38;5.70;;;6.80;82.70;;;;;;5113059;28;20146;-77
2021/11/10 02:47:50;;;;;;;12.32;6.53;;;6.80;82.80;;;;;;5094795;28;20083;-77
2021/11/10 02:50:15;;;;;;;11.63;5.70;;;6.80;82.80;;;;;;5094596;28;20143;-77
2021/11/10 02:52:42;;;;;;;12.00;5.78;;;6.80;82.80;;;;;;5094861;28;20023;-76
2021/11/10 02:55:07;;;;;;;12.38;5.95;;;6.80;82.90;;;;;;5094739;28;20043;-76
2021/11/10 02:57:33;;;;;;;10.80;6.03;;;6.80;82.80;;;;;;5094635;28;20065;-76
2021/11/10 02:59:59;;;;;;;11.45;6.10;;;6.70;82.80;;;;;;5097942;28;20052;-76
2021/11/10 03:02:30;;;;;;;10.35;5.90;;;6.70;82.90;;;;;;5098252;28;20494;-76
2021/11/10 03:04:57;;;;;;;9.07;5.45;;;6.70;82.90;;;;;;5098022;28;20027;-76
2021/11/10 03:07:23;;;;;;;8.70;5.50;;;6.70;82.90;;;;;;5097995;28;20382;-76
2021/11/10 03:09:49;;;;;;;13.27;5.82;;;6.70;82.90;;;;;;5097857;28;20102;-77
2021/11/10 03:12:17;;;;;;;10.60;5.85;;;6.70;82.90;;;;;;5116168;28;20024;-76
2021/11/10 03:14:44;;;;;;;10.35;6.13;;;6.60;82.90;;;;;;5097928;28;20122;-76
2021/11/10 03:17:13;;;;;;;13.65;6.05;;;6.70;82.90;;;;;;5097838;28;20027;-76
2021/11/10 03:19:40;;;;;;;11.05;5.60;;;6.70;82.90;;;;;;5097807;28;20023;-77
2021/11/10 03:22:08;;;;;;;11.98;6.20;;;6.70;82.90;;;;;;5116016;28;20740;-76
2021/11/10 03:24:34;;;;;;;11.38;6.43;;;6.60;82.90;;;;;;5097634;28;20073;-77
2021/11/10 03:27:00;;;;;;;10.82;6.32;;;6.70;82.90;;;;;;5097711;28;20532;-77
2021/11/10 03:29:26;;;;;;;10.05;5.80;;;6.60;82.90;;;;;;5097488;28;20043;-77
2021/11/10 03:31:52;;;;;;;10.43;6.07;;;6.60;82.90;;;;;;5097531;28;20031;-77
2021/11/10 03:34:18;;;;;;;12.15;6.13;;;6.60;82.90;;;;;;5115753;28;20023;-76
2021/11/10 03:36:44;;;;;;;9.77;5.78;;;6.50;82.90;;;;;;5097791;28;20016;-76
2021/11/10 03:39:12;;;;;;;14.05;6.10;;;6.50;82.90;;;;;;5097292;28;20110;-77
2021/11/10 03:41:39;;;;;;;13.07;6.07;;;6.50;83.00;;;;;;5097335;28;20077;-76
2021/11/10 03:44:04;;;;;;;10.45;6.65;;;6.50;83.00;;;;;;5097543;28;20463;-77
2021/11/10 03:46:31;;;;;;;10.95;5.75;;;6.50;83.00;;;;;;5097124;28;20102;-76
2021/11/10 03:48:57;;;;;;;11.95;5.60;;;6.50;83.00;;;;;;5097263;28;20396;-76
2021/11/10 03:51:22;;;;;;;10.18;5.57;;;6.40;83.00;;;;;;5115540;28;20019;-76
2021/11/10 03:53:49;;;;;;;8.80;5.72;;;6.40;83.10;;;;;;5096949;28;20119;-76
2021/11/10 03:56:15;;;;;;;11.10;5.80;;;6.40;83.10;;;;;;5115382;28;20031;-76
2021/11/10 03:58:40;;;;;;;11.10;6.15;;;6.40;83.20;;;;;;5115297;28;20036;-76
2021/11/10 04:01:06;;;;;;;10.52;5.85;;;6.40;83.20;;;;;;5096928;28;20023;-76
2021/11/10 04:03:33;;;;;;;12.50;5.70;;;6.40;83.20;;;;;;5096836;28;20020;-76
2021/11/10 04:05:59;;;;;;;10.15;5.88;;;6.40;83.20;;;;;;5096926;28;20072;-76
2021/11/10 04:08:25;;;;;;;12.18;6.05;;;6.40;83.20;;;;;;5096882;28;20160;-76
2021/11/10 04:10:51;;;;;;;11.63;6.32;;;6.40;83.30;;;;;;5096311;28;20053;-76
2021/11/10 04:13:17;;;;;;;10.50;5.65;;;6.40;83.20;;;;;;5096894;28;20043;-76
2021/11/10 04:15:43;;;;;;;12.15;5.90;;;6.40;83.30;;;;;;5114975;28;20019;-76
2021/11/10 04:18:08;;;;;;;12.40;5.90;;;6.30;83.30;;;;;;5096653;28;20038;-76
2021/11/10 04:20:34;;;;;;;12.63;6.20;;;6.30;83.30;;;;;;5096507;28;20023;-76
2021/11/10 04:23:00;;;;;;;9.57;5.95;;;6.30;83.30;;;;;;5096434;28;20398;-76
2021/11/10 04:25:25;;;;;;;11.57;6.15;;;6.30;83.30;;;;;;5096638;28;20018;-76
2021/11/10 04:27:51;;;;;;;11.65;6.00;;;6.30;83.30;;;;;;5096479;28;20463;-76
2021/11/10 04:30:18;;;;;;;10.20;5.97;;;6.20;83.30;;;;;;5096306;28;20039;-76
2021/11/10 04:32:44;;;;;;;12.93;6.30;;;6.20;83.30;;;;;;5096474;28;20478;-76
2021/11/10 04:35:15;;;;;;;12.95;6.43;;;6.20;83.30;;;;;;5096399;28;20015;-76
2021/11/10 04:37:41;;;;;;;17.23;6.95;;;6.20;83.40;;;;;;5096249;28;20016;-76
2021/11/10 04:40:09;;;;;;;10.82;6.22;;;6.20;83.30;;;;;;5096352;28;20066;-77
2021/11/10 04:42:35;;;;;;;9.27;5.75;;;6.20;83.30;;;;;;5096112;28;20539;-76
2021/11/10 04:45:07;;;;;;;11.57;6.13;;;6.20;83.30;;;;;;5096068;28;20020;-76
2021/11/10 04:47:33;;;;;;;9.93;5.80;;;6.20;83.30;;;;;;5096059;28;20039;-76
2021/11/10 04:49:59;;;;;;;10.45;5.80;;;6.20;83.30;;;;;;5096350;28;20035;-76
2021/11/10 04:52:25;;;;;;;12.00;6.18;;;6.10;83.30;;;;;;5096021;28;20043;-76
2021/11/10 04:54:52;;;;;;;12.15;6.65;;;6.20;83.30;;;;;;5095939;28;20047;-76
2021/11/10 04:57:17;;;;;;;10.45;6.28;;;6.10;83.30;;;;;;5095976;28;20435;-76
2021/11/10 04:59:44;;;;;;;11.07;6.35;;;6.10;83.40;;;;;;5095978;28;20024;-76
2021/11/10 05:04:40;;;;;;;9.15;5.85;;;6.10;83.30;;;;;;5114227;28;20039;-76
2021/11/10 05:07:07;;;;;;;11.38;6.70;;;6.10;83.40;;;;;;5095728;28;20441;-76
2021/11/10 05:09:33;;;;;;;14.23;6.82;;;6.10;83.40;;;;;;5095706;28;20123;-77
2021/11/10 05:11:59;;;;;;;11.10;6.13;;;6.10;83.40;;;;;;5095753;28;20059;-76
2021/11/10 05:14:25;;;;;;;10.70;6.75;;;6.00;83.40;;;;;;5095631;28;20478;-75
2021/11/10 05:16:51;;;;;;;14.38;7.15;;;6.00;83.50;;;;;;5095602;28;20073;-76
2021/11/10 05:19:18;;;;;;;10.52;6.53;;;6.00;83.50;;;;;;5096037;28;20406;-76
2021/11/10 05:21:44;;;;;;;11.27;6.80;;;6.00;83.50;;;;;;5094762;28;20027;-75
2021/11/10 05:24:10;;;;;;;11.13;6.20;;;6.00;83.50;;;;;;5095489;28;20028;-76
2021/11/10 05:26:38;;;;;;;11.27;6.13;;;6.00;83.50;;;;;;5095462;28;20034;-76
2021/11/10 05:29:04;;;;;;;10.00;6.13;;;6.00;83.50;;;;;;5095219;28;20031;-76
2021/11/10 05:31:29;;;;;;;10.68;6.30;;;6.00;83.40;;;;;;5095522;28;20045;-76
2021/11/10 05:33:55;;;;;;;9.00;5.88;;;6.00;83.40;;;;;;5095440;28;20028;-77
2021/11/10 05:36:21;;;;;;;10.93;5.85;;;5.90;83.40;;;;;;5095380;28;20091;-77
2021/11/10 05:38:46;;;;;;;12.10;6.30;;;5.90;83.40;;;;;;5095435;28;20031;-77
2021/11/10 05:41:12;;;;;;;15.30;6.43;;;5.90;83.50;;;;;;5095389;28;20027;-77
2021/11/10 05:43:38;;;;;;;10.95;6.10;;;5.90;83.50;;;;;;5095202;28;20494;-76
2021/11/10 05:46:06;;;;;;;10.23;5.78;;;5.80;83.50;;;;;;5095230;28;20061;-76
2021/11/10 05:48:32;;;;;;;11.25;6.45;;;5.80;83.50;;;;;;5095191;28;20492;-76
2021/11/10 05:50:58;;;;;;;9.60;6.35;;;5.80;83.50;;;;;;5095132;28;20016;-75
2021/11/10 05:53:24;;;;;;;15.70;6.47;;;5.80;83.50;;;;;;5095174;28;20027;-75
2021/11/10 05:55:55;;;;;;;12.80;6.45;;;5.80;83.50;;;;;;5095151;28;20119;-76
2021/11/10 05:58:27;;;;;;;10.18;5.88;;;5.80;83.50;;;;;;5095031;28;20036;-75
2021/11/10 06:00:56;;;;;;;9.13;5.93;;;5.80;83.50;;;;;;5095016;28;20085;-75
2021/11/10 06:03:22;;;;;;;11.80;6.13;;;5.80;83.50;;;;;;5095092;28;20110;-76
2021/11/10 06:05:52;;;;;;;10.73;6.18;;;5.80;83.50;;;;;;5094919;28;20506;-75
2021/11/10 06:08:18;;;;;;;11.85;6.30;;;5.80;83.60;;;;;;5095128;28;20024;-76
2021/11/10 06:10:43;;;;;;;9.13;6.35;;;5.80;83.60;;;;;;5095074;28;20020;-76
2021/11/10 06:13:09;;;;;;;12.90;7.40;;;5.80;83.60;;;;;;5113166;28;20036;-76
2021/11/10 06:15:34;;;;;;;11.25;7.22;;;5.80;83.60;;;;;;5113243;28;20115;-76
2021/11/10 06:18:00;;;;;;;11.15;6.47;;;5.70;83.60;;;;;;5094976;28;20084;-76
2021/11/10 06:20:26;;;;;;;10.50;6.78;;;5.70;83.60;;;;;;5094827;28;20031;-76
2021/11/10 06:22:51;;;;;;;13.45;6.70;;;5.70;83.70;;;;;;5094837;28;20563;-75
2021/11/10 06:25:18;;;;;;;13.05;6.82;;;5.70;83.60;;;;;;5113181;28;20027;-76
2021/11/10 06:27:43;;;;;;;13.68;6.50;;;5.70;83.70;;;;;;5094771;28;20024;-75
2021/11/10 06:30:10;;;;;;;11.52;7.00;;;5.70;83.70;;;;;;5094732;28;20616;-77
2021/11/10 06:32:36;;;;;;;9.15;6.10;;;5.70;83.70;;;;;;5096019;28;20419;-75
2021/11/10 06:35:04;;;;;;;13.00;6.53;;;5.70;83.70;;;;;;5098487;28;20022;-76
2021/11/10 06:37:30;;;;;;;12.88;6.70;;;5.70;83.80;;;;;;5098756;28;20016;-76
2021/11/10 06:39:55;;;;;;;11.52;7.00;;;5.70;83.70;;;;;;5098664;28;20016;-76
2021/11/10 06:42:21;;;;;;;10.10;6.88;;;5.70;83.70;;;;;;5098329;28;20019;-76
2021/11/10 06:44:46;;;;;;;9.93;6.55;;;5.70;83.70;;;;;;5098447;28;20032;-76
2021/11/10 06:47:12;;;;;;;12.20;6.47;;;5.70;83.80;;;;;;5098554;28;20069;-76
2021/11/10 06:49:38;;;;;;;13.43;6.88;;;5.70;83.70;;;;;;5098297;28;20028;-76
2021/11/10 06:52:04;;;;;;;11.65;6.82;;;5.80;83.80;;;;;;5098422;28;20016;-76
2021/11/10 06:54:31;;;;;;;12.32;6.70;;;5.80;83.80;;;;;;5098316;28;20030;-76
2021/11/10 06:56:57;;;;;;;10.85;6.40;;;5.70;83.70;;;;;;5098264;28;20023;-76
2021/11/10 06:59:22;;;;;;;10.82;6.10;;;5.70;83.70;;;;;;5098127;28;20440;-76
2021/11/10 07:01:48;;;;;;;9.52;6.72;;;5.80;83.80;;;;;;5098126;28;20050;-76
2021/11/10 07:04:14;;;;;;;13.55;8.15;;;5.80;83.80;;;;;;5098012;28;20026;-77
2021/11/10 07:06:39;;;;;;;13.02;6.85;;;5.80;83.70;;;;;;5098131;28;20020;-76
2021/11/10 07:09:07;;;;;;;12.85;7.20;;;5.80;83.80;;;;;;5098109;28;20016;-76
2021/11/10 07:11:34;;;;;;;12.77;7.20;;;5.80;83.80;;;;;;5097921;28;20019;-75
2021/11/10 07:14:02;;;;;;;11.75;6.88;;;5.80;83.80;;;;;;5097960;28;20106;-76
2021/11/10 07:16:28;;;;;;;13.63;8.20;;;5.80;83.80;;;;;;5097955;28;20036;-76
2021/11/10 07:18:54;;;;;;;13.25;7.78;;;5.80;83.80;;;;;;5097884;28;20020;-76
2021/11/10 07:21:20;;;;;;;13.73;7.72;;;5.80;83.70;;;;;;5116007;28;20085;-76
2021/11/10 07:23:45;;;;;;;12.40;7.35;;;5.80;83.80;;;;;;5097748;28;20356;-76
2021/11/10 07:26:11;;;;;;;17.48;7.68;;;5.80;83.80;;;;;;5115984;28;20060;-75
2021/11/10 07:31:59;;;;;;;12.77;7.00;;;5.90;83.90;;;;;;5114810;28;20177;-76
2021/11/10 07:34:24;;;;;;;13.80;7.43;;;5.90;83.70;;;;;;5097601;28;20045;-76
2021/11/10 07:36:50;;;;;;;10.57;6.72;;;5.90;83.70;;;;;;5115852;28;20024;-76
2021/11/10 07:39:16;;;;;;;12.82;7.47;;;5.90;83.70;;;;;;5097616;28;20027;-76
2021/11/10 07:41:41;;;;;;;13.00;7.43;;;6.00;83.70;;;;;;5097487;28;20023;-76
2021/11/10 07:44:08;;;;;;;15.00;7.93;;;6.00;83.70;;;;;;5114951;28;20058;-76
2021/11/10 07:46:34;;;;;;;13.70;7.90;;;6.00;83.70;;;;;;5097189;28;20027;-75
2021/11/10 07:49:01;;;;;;;15.00;7.20;;;6.00;83.70;;;;;;5097323;28;20445;-76
2021/11/10 07:51:27;;;;;;;11.63;7.53;;;6.10;83.80;;;;;;5112577;28;20045;-74
2021/11/10 07:53:54;;;;;;;12.60;7.32;;;6.10;83.70;;;;;;5115427;28;20027;-75
2021/11/10 07:56:21;;;;;;;13.00;7.78;;;6.10;83.70;;;;;;5097122;28;20031;-75
2021/11/10 07:58:46;;;;;;;12.50;7.18;;;6.30;83.70;;;;;;5096933;28;20034;-74
2021/11/10 08:01:13;;;;;;;12.95;7.13;;;6.30;83.50;;;;;;5115481;28;20031;-75
2021/11/10 08:03:39;;;;;;;13.88;7.93;;;6.40;83.40;;;;;;5115252;28;20023;-75
2021/11/10 08:06:05;;;;;;;13.55;8.10;;;6.50;83.40;;;;;;5115252;28;20460;-74
2021/11/10 08:08:31;;;;;;;14.30;7.60;;;6.60;83.30;;;;;;5115285;28;20107;-74
2021/11/10 08:11:02;;;;;;;14.63;7.75;;;6.70;83.10;;;;;;5096882;28;20391;-74
2021/11/10 08:13:28;;;;;;;15.25;8.07;;;6.80;83.10;;;;;;5096964;28;20036;-76
2021/11/10 08:15:56;;;;;;;16.98;7.22;;;6.90;82.90;;;;;;5096759;28;20023;-74
2021/11/10 08:18:22;;;;;;;9.88;7.35;;;7.00;82.80;;;;;;5096932;28;20062;-74
2021/11/10 08:20:48;;;;;;;14.98;9.07;;;7.20;82.70;;;;;;5096703;28;20055;-75
2021/11/10 08:23:19;;;;;;;13.40;8.85;;;7.20;82.60;;;;;;5096623;28;20033;-75
2021/11/10 08:25:45;;;;;;;13.25;8.48;;;7.30;82.50;;;;;;5096624;28;20103;-74
2021/11/10 08:28:10;;;;;;;13.40;7.95;;;7.40;82.30;;;;;;5114887;28;20061;-74
2021/11/10 08:30:36;;;;;;;14.15;8.07;;;7.40;82.20;;;;;;5096247;28;20019;-74
2021/11/10 08:33:02;;;;;;;15.05;7.85;;;7.40;82.20;;;;;;5096595;28;20027;-75
2021/11/10 08:35:28;;;;;;;16.73;8.50;;;7.40;82.20;;;;;;5114606;28;20043;-74
2021/11/10 08:37:57;;;;;;;13.70;7.53;;;7.40;82.30;;;;;;5096357;28;20114;-74
2021/11/10 08:40:23;;;;;;;17.08;7.85;;;7.50;82.10;;;;;;5096207;28;20032;-75
2021/11/10 08:42:51;;;;;;;14.75;9.27;;;7.50;82.00;;;;;;5114434;28;20038;-74
2021/11/10 08:45:20;;;;;;;11.43;7.65;;;7.50;82.00;;;;;;5095915;28;20108;-75
2021/11/10 08:47:48;;;;;;;14.50;7.68;;;7.50;81.90;;;;;;5096070;28;20031;-75
2021/11/10 08:50:18;;;;;;;15.02;7.78;;;7.60;81.80;;;;;;5096010;28;20107;-74
2021/11/10 08:52:45;;;;;;;17.88;7.50;;;7.60;81.70;;;;;;5096121;28;20028;-75
2021/11/10 08:55:12;;;;;;;15.27;8.15;;;7.60;81.60;;;;;;5096016;28;20023;-75
2021/11/10 08:57:39;;;;;;;16.30;7.65;;;7.70;81.50;;;;;;5114312;28;20386;-75
2021/11/10 09:00:11;;;;;;;15.13;7.68;;;7.80;81.40;;;;;;5095880;28;20030;-75
2021/11/10 09:02:37;;;;;;;15.88;8.00;;;7.80;81.10;;;;;;5095839;28;20031;-75
2021/11/10 09:05:04;;;;;;;11.93;7.18;;;7.90;81.10;;;;;;5095847;28;20042;-76
2021/11/10 09:07:29;;;;;;;15.55;7.47;;;7.90;81.00;;;;;;5095657;28;20023;-76
2021/11/10 09:09:55;;;;;;;13.45;7.40;;;8.00;81.00;;;;;;5114047;28;20364;-75
2021/11/10 09:12:21;;;;;;;14.02;7.38;;;8.10;80.90;;;;;;5095689;28;20395;-74
2021/11/10 09:14:51;;;;;;;14.10;8.00;;;8.20;80.80;;;;;;5113921;28;20028;-76
2021/11/10 09:20:40;;;;;;;13.40;6.38;;;8.20;80.10;;;;;;5114328;28;20387;-75
2021/11/10 09:23:07;;;;;;;14.15;7.07;;;8.30;80.00;;;;;;5113675;28;20042;-75
2021/11/10 09:25:37;;;;;;;14.07;7.20;;;8.30;79.90;;;;;;5095591;28;20028;-75
2021/11/10 09:28:07;;;;;;;11.85;7.10;;;8.40;79.90;;;;;;5093269;28;20478;-75
2021/11/10 09:30:38;;;;;;;15.02;7.45;;;8.50;79.80;;;;;;5095305;28;20077;-75
2021/11/10 09:33:04;;;;;;;13.98;7.15;;;8.50;79.60;;;;;;5095324;28;20046;-75
2021/11/10 09:35:30;;;;;;;13.52;6.90;;;8.60;79.60;;;;;;5113806;28;20047;-80
2021/11/10 09:37:57;;;;;;;11.18;6.38;;;8.70;79.40;;;;;;5095415;28;20024;-75
2021/11/10 09:40:26;;;;;;;15.98;7.50;;;8.90;79.30;;;;;;5114328;28;20123;-74
2021/11/10 09:42:54;;;;;;;15.90;7.72;;;9.00;79.10;;;;;;5095268;28;20020;-75
2021/11/10 09:45:22;;;;;;;13.80;7.03;;;9.20;79.00;;;;;;5095236;28;20085;-74
2021/11/10 09:47:48;;;;;;;16.00;7.43;;;9.30;78.60;;;;;;5095114;28;20505;-76
2021/11/10 09:50:19;;;;;;;14.15;7.18;;;9.40;78.40;;;;;;5095175;28;20484;-77
2021/11/10 09:52:45;;;;;;;15.43;7.40;;;9.50;78.20;;;;;;5092734;28;20039;-76
2021/11/10 09:58:37;;;;;;;13.93;7.60;;;9.60;77.80;;;;;;5113784;28;20445;-75
2021/11/10 10:01:08;;;;;;;13.98;7.40;;;9.60;77.70;;;;;;5092416;28;20437;-75
2021/11/10 10:03:37;;;;;;;13.52;7.00;;;9.60;77.70;;;;;;5095009;28;20027;-75
2021/11/10 10:06:58;;;;;;;15.77;7.13;;;9.70;77.50;;;;;;5110205;28;20036;-76
2021/11/10 10:09:24;;;;;;;11.38;6.40;;;9.70;77.20;;;;;;5099160;28;20031;-75
2021/11/10 10:11:50;;;;;;;14.25;6.78;;;9.70;76.90;;;;;;5099175;28;20122;-75
2021/11/10 10:14:15;;;;;;;14.32;7.05;;;9.80;76.80;;;;;;5099152;28;20031;-75
2021/11/10 10:16:41;;;;;;;17.10;6.50;;;9.80;76.70;;;;;;5098980;28;20027;-75
2021/11/10 10:19:14;;;;;;;12.70;6.78;;;9.80;76.50;;;;;;5098990;28;20122;-76
2021/11/10 10:21:42;;;;;;;10.57;6.20;;;9.90;76.40;;;;;;5099274;28;20027;-76
2021/11/10 10:24:14;;;;;;;11.50;6.88;;;9.90;76.30;;;;;;5117169;28;20502;-75
2021/11/10 10:26:40;;;;;;;10.85;6.57;;;9.90;76.20;;;;;;5098941;28;20033;-76
2021/11/10 10:29:09;;;;;;;13.90;6.65;;;9.90;76.10;;;;;;5098877;28;20059;-75
2021/11/10 10:31:37;;;;;;;12.38;6.82;;;10.00;76.10;;;;;;5098489;28;20049;-75
2021/11/10 10:34:09;;;;;;;11.95;6.68;;;10.00;76.00;;;;;;5098697;28;20387;-75
2021/11/10 10:36:37;;;;;;;13.80;6.80;;;10.00;75.90;;;;;;5098720;28;20039;-75
2021/11/10 10:39:18;;;;;;;13.40;7.13;;;10.10;75.90;;;;;;5098573;28;20031;-75
2021/11/10 10:41:52;;;;;;;15.60;6.70;;;10.10;75.60;;;;;;5117110;28;20110;-75
2021/11/10 10:44:20;;;;;;;13.18;7.18;;;10.10;75.50;;;;;;5099926;28;20036;-73
2021/11/10 10:46:48;;;;;;;14.95;7.63;;;10.10;75.50;;;;;;5116733;28;20083;-74
2021/11/10 10:49:21;;;;;;;12.60;6.50;;;10.20;75.50;;;;;;5108549;28;20123;-73
2021/11/10 10:51:54;;;;;;;18.67;6.72;;;10.20;75.50;;;;;;5098541;28;20537;-74
2021/11/10 10:54:27;;;;;;;13.23;7.25;;;10.30;75.50;;;;;;5116650;28;20031;-75
2021/11/10 10:56:59;;;;;;;;;;;10.40;75.30;;;;;;5098543;28;20059;-74
2021/11/10 10:59:26;;;;;;;12.25;6.03;;;10.40;75.20;;;;;;5116634;28;19908;-74
2021/11/10 11:01:54;;;;;;;13.95;7.03;;;10.50;75.00;;;;;;5116631;28;20023;-74
2021/11/10 11:04:29;;;;;;;13.48;6.95;;;10.60;74.80;;;;;;5098040;28;20391;-75
2021/11/10 11:07:09;;;;;;;13.38;6.90;;;10.70;74.50;;;;;;5116385;28;20034;-76
2021/11/10 11:09:40;;;;;;;17.98;7.28;;;10.70;74.60;;;;;;5097972;28;20031;-74
2021/11/10 11:12:21;;;;;;;12.55;6.45;;;10.70;74.50;;;;;;5098112;28;20026;-74
2021/11/10 11:14:54;;;;;;;12.43;6.38;;;10.80;74.60;;;;;;5116188;28;20148;-73
2021/11/10 11:17:22;;;;;;;13.98;6.50;;;10.90;74.60;;;;;;5097902;28;20028;-74
2021/11/10 11:19:52;;;;;;;16.05;7.13;;;10.90;74.60;;;;;;5114743;28;20031;-74
2021/11/10 11:22:17;;;;;;;11.13;6.63;;;11.00;74.50;;;;;;5097525;28;20042;-75
2021/11/10 11:24:44;;;;;;;11.25;5.90;;;11.10;74.50;;;;;;5097652;28;20503;-74
2021/11/10 11:27:41;;;;;;;11.75;6.20;;;11.10;74.60;;;;;;5097620;28;20076;-73
2021/11/10 11:30:12;;;;;;;13.38;6.38;;;11.20;74.20;;;;;;5066971;28;20038;-75
2021/11/10 11:32:44;;;;;;;14.07;6.78;;;11.30;74.00;;;;;;5097382;28;20071;-73
2021/11/10 11:35:33;;;;;;;11.68;6.90;;;11.20;73.70;;;;;;5115587;28;20035;-73
2021/11/10 11:38:04;;;;;;;15.02;6.40;;;11.20;73.80;;;;;;5097429;28;20081;-75
2021/11/10 11:40:32;;;;;;;11.50;6.22;;;11.30;73.90;;;;;;5097526;28;20088;-74
2021/11/10 11:42:59;;;;;;;12.40;6.32;;;11.30;73.90;;;;;;5097290;28;20028;-75
2021/11/10 11:45:27;;;;;;;10.02;6.32;;;11.40;74.00;;;;;;5115634;28;20027;-74
2021/11/10 11:47:54;;;;;;;11.68;6.50;;;11.40;73.90;;;;;;5097407;28;20020;-74
2021/11/10 11:50:21;;;;;;;11.05;6.80;;;11.40;73.80;;;;;;5097124;28;20089;-74
2021/11/10 11:52:50;;;;;;;12.93;7.15;;;11.40;73.70;;;;;;5097062;28;20039;-73
2021/11/10 11:55:29;;;;;;;11.52;6.72;;;11.50;73.70;;;;;;5097018;28;20055;-74
2021/11/10 11:58:07;;;;;;;13.35;6.32;;;11.50;73.60;;;;;;5097015;28;20538;-74
2021/11/10 12:00:40;;;;;;;11.90;6.35;;;11.60;73.60;;;;;;5097362;28;20102;-74
2021/11/10 12:03:27;;;;;;;17.13;7.38;;;11.60;73.40;;;;;;5096925;28;20069;-74
2021/11/10 12:06:14;;;;;;;15.43;7.13;;;11.70;73.30;;;;;;5096899;28;20028;-74
2021/11/10 12:08:51;;;;;;;12.95;7.30;;;11.70;73.20;;;;;;5096981;28;20031;-73
2021/11/10 12:11:23;;;;;;;15.90;8.00;;;11.80;73.10;;;;;;5096994;28;20020;-74
2021/11/10 12:14:07;;;;;;;11.88;6.85;;;11.80;72.90;;;;;;5115233;28;20031;-73
2021/11/10 12:16:44;;;;;;;12.35;6.63;;;11.90;73.00;;;;;;5096830;28;20487;-73
2021/11/10 12:19:11;;;;;;;11.75;6.38;;;12.00;73.70;;;;;;5096826;28;20066;-73
2021/11/10 12:21:51;;;;;;;14.55;6.93;;;12.00;73.00;;;;;;5096571;28;20111;-73
2021/11/10 12:24:47;;;;;;;10.70;6.97;;;12.10;72.90;;;;;;5096590;28;20081;-73
2021/11/10 12:27:17;;;;;;;10.18;5.95;;;12.10;72.90;;;;;;5096657;28;20024;-73
2021/11/10 12:33:32;;;;;;;11.45;6.57;;;12.20;72.80;;;;;;5113922;28;20549;-73
2021/11/10 12:35:57;;;;;;;10.82;6.18;;;12.30;72.80;;;;;;5096463;28;20024;-73
2021/11/10 12:38:25;;;;;;;10.95;6.15;;;12.30;72.80;;;;;;5114778;28;20028;-73
2021/11/10 12:41:00;;;;;;;13.13;6.47;;;12.40;72.70;;;;;;5114610;28;20023;-72
2021/11/10 12:43:36;;;;;;;12.43;7.25;;;12.50;72.60;;;;;;5096441;28;20336;-73
2021/11/10 12:46:08;;;;;;;12.13;6.85;;;12.50;72.50;;;;;;5096097;28;20020;-73
2021/11/10 12:48:44;;;;;;;12.65;6.75;;;12.50;72.30;;;;;;5114435;28;20027;-73
2021/11/10 12:51:18;;;;;;;13.73;7.30;;;12.50;72.40;;;;;;5096147;28;20030;-73
2021/11/10 12:53:46;;;;;;;11.82;6.55;;;12.50;72.30;;;;;;5096206;28;20487;-73
2021/11/10 12:56:12;;;;;;;13.00;6.65;;;12.60;72.30;;;;;;5096028;28;20028;-74
2021/11/10 12:58:39;;;;;;;14.57;7.00;;;12.50;72.20;;;;;;5096305;28;20080;-72
2021/11/10 13:01:06;;;;;;;13.73;7.65;;;12.50;72.20;;;;;;5095894;28;20035;-73
2021/11/10 13:03:35;;;;;;;18.05;7.70;;;12.40;72.20;;;;;;5095851;28;20355;-73
2021/11/10 13:06:25;;;;;;;14.60;7.38;;;12.40;72.20;;;;;;5095884;28;20023;-73
2021/11/10 13:09:00;;;;;;;13.88;7.25;;;12.40;72.20;;;;;;5114081;28;20020;-73